Time;durP1;ratioP1;P1;durP2;ratioP2;P2;SDS_P1;SDS_P2;PMS_P1;PMS_P2;Temp;Humidity;BMP_temperature;BMP_pressure;BME280_temperature;BME280_humidity;BME280_pressure;Samples;Min_cycle;Max_cycle;Signal;HPM_P1;HPM_P2
2023/07/05 00:00:37;;;;;;;9.33;4.10;;;17.30;99.90;;;;;;5047682;28;20568;-66
2023/07/05 00:03:03;;;;;;;9.43;4.90;;;17.30;99.90;;;;;;5049228;28;20950;-65
2023/07/05 00:05:29;;;;;;;9.07;4.33;;;17.30;99.90;;;;;;5059422;28;20190;-64
2023/07/05 00:07:54;;;;;;;6.87;4.87;;;17.30;99.90;;;;;;5064399;28;20207;-64
2023/07/05 00:10:20;;;;;;;7.40;4.63;;;17.20;99.90;;;;;;5062142;28;20295;-64
2023/07/05 00:12:45;;;;;;;8.23;4.67;;;17.20;99.90;;;;;;5061615;28;20197;-64
2023/07/05 00:15:11;;;;;;;5.10;4.60;;;17.20;99.90;;;;;;5046316;28;20574;-64
2023/07/05 00:17:37;;;;;;;6.10;4.10;;;17.20;99.90;;;;;;5053183;28;20271;-63
2023/07/05 00:20:04;;;;;;;5.33;4.67;;;17.20;99.90;;;;;;5046289;28;20257;-63
2023/07/05 00:22:30;;;;;;;10.43;4.67;;;17.20;99.90;;;;;;5049122;28;20198;-63
2023/07/05 00:24:56;;;;;;;7.37;4.97;;;17.20;99.90;;;;;;5057667;28;20339;-63
2023/07/05 00:27:22;;;;;;;5.67;4.33;;;17.10;99.90;;;;;;5045479;28;20732;-63
2023/07/05 00:29:49;;;;;;;8.43;4.93;;;17.20;99.90;;;;;;5056671;28;20210;-63
2023/07/05 00:32:15;;;;;;;8.63;5.03;;;17.20;99.90;;;;;;5047781;28;20206;-62
2023/07/05 00:34:41;;;;;;;12.00;4.70;;;17.30;99.90;;;;;;5055800;28;20254;-62
2023/07/05 00:37:06;;;;;;;5.87;4.50;;;17.20;99.90;;;;;;5057933;28;20214;-63
2023/07/05 00:39:32;;;;;;;7.93;4.30;;;17.20;99.90;;;;;;5057975;28;20209;-62
2023/07/05 00:41:58;;;;;;;4.87;4.33;;;17.20;99.90;;;;;;5056099;28;20200;-63
2023/07/05 00:44:23;;;;;;;11.57;4.37;;;17.10;99.90;;;;;;5059976;28;20255;-62
2023/07/05 00:46:56;;;;;;;8.37;4.10;;;17.10;99.90;;;;;;5054187;28;20343;-63
2023/07/05 00:49:26;;;;;;;6.10;3.90;;;17.10;99.90;;;;;;5055559;28;20304;-64
2023/07/05 00:52:03;;;;;;;4.60;4.20;;;17.10;99.90;;;;;;5056754;28;20279;-63
2023/07/05 00:54:35;;;;;;;7.30;4.33;;;17.00;99.90;;;;;;5057554;28;20203;-63
2023/07/05 00:57:17;;;;;;;8.03;4.47;;;17.00;99.90;;;;;;5057286;28;20227;-66
2023/07/05 00:59:51;;;;;;;8.07;4.47;;;17.00;99.90;;;;;;5057235;28;20343;-64
2023/07/05 01:02:17;;;;;;;6.10;4.37;;;17.00;99.90;;;;;;5057406;28;20246;-64
2023/07/05 01:04:42;;;;;;;8.53;4.63;;;17.00;99.90;;;;;;5057884;28;20232;-64
2023/07/05 01:07:08;;;;;;;7.00;4.37;;;17.00;99.90;;;;;;5057097;28;20666;-66
2023/07/05 01:09:33;;;;;;;8.17;4.67;;;17.00;99.90;;;;;;5061127;28;20698;-66
2023/07/05 01:12:18;;;;;;;3.93;3.63;;;16.90;99.90;;;;;;5052394;28;20198;-65
2023/07/05 01:15:03;;;;;;;6.80;5.10;;;16.90;99.90;;;;;;5057249;28;20240;-65
2023/07/05 01:17:49;;;;;;;4.93;4.37;;;17.00;99.90;;;;;;5057044;28;20269;-65
2023/07/05 01:20:28;;;;;;;5.63;4.50;;;16.90;99.90;;;;;;5056615;28;20194;-65
2023/07/05 01:23:19;;;;;;;5.37;4.17;;;16.90;99.90;;;;;;5057360;28;20196;-65
2023/07/05 01:25:56;;;;;;;7.73;4.60;;;16.70;99.90;;;;;;5056498;28;20258;-65
2023/07/05 01:28:37;;;;;;;4.83;4.07;;;16.80;99.90;;;;;;5042600;28;20210;-65
2023/07/05 01:31:31;;;;;;;4.90;4.27;;;16.80;99.90;;;;;;5048030;28;20257;-62
2023/07/05 01:34:22;;;;;;;9.50;4.33;;;16.90;99.90;;;;;;5055543;28;20194;-63
2023/07/05 01:36:48;;;;;;;4.87;4.10;;;16.80;99.90;;;;;;5045773;28;20294;-63
2023/07/05 01:39:14;;;;;;;4.67;4.27;;;16.90;99.90;;;;;;5047200;28;20248;-63
2023/07/05 01:41:39;;;;;;;6.47;4.53;;;16.90;99.90;;;;;;5047168;28;20198;-62
2023/07/05 01:44:07;;;;;;;6.30;4.73;;;17.00;99.90;;;;;;5054793;28;20194;-63
2023/07/05 01:46:42;;;;;;;6.37;3.73;;;16.80;99.90;;;;;;5046671;28;20298;-62
2023/07/05 01:49:34;;;;;;;5.73;4.30;;;16.60;99.90;;;;;;5046411;28;20287;-65
2023/07/05 01:52:12;;;;;;;9.43;5.00;;;16.70;99.90;;;;;;5048399;28;20210;-63
2023/07/05 01:55:02;;;;;;;7.67;3.70;;;16.80;99.90;;;;;;5048998;28;20552;-63
2023/07/05 01:57:39;;;;;;;6.00;4.17;;;16.80;99.90;;;;;;5051913;28;20279;-68
2023/07/05 02:00:15;;;;;;;8.77;4.97;;;16.80;99.90;;;;;;5047025;28;20195;-64
2023/07/05 02:02:46;;;;;;;5.70;3.73;;;16.80;99.90;;;;;;5047334;28;20193;-68
2023/07/05 02:05:13;;;;;;;9.97;4.30;;;16.80;99.90;;;;;;5047137;28;20731;-67
2023/07/05 02:07:39;;;;;;;7.20;4.73;;;16.70;99.90;;;;;;5059402;28;20213;-63
2023/07/05 02:10:04;;;;;;;6.37;4.03;;;16.80;99.90;;;;;;5062693;28;20828;-66
2023/07/05 02:12:30;;;;;;;8.77;4.80;;;16.90;99.90;;;;;;5054380;28;20314;-65
2023/07/05 02:14:56;;;;;;;7.83;3.93;;;16.90;99.90;;;;;;5057084;28;20201;-65
2023/07/05 02:17:22;;;;;;;8.03;4.43;;;16.80;99.90;;;;;;5051726;28;20696;-65
2023/07/05 02:19:48;;;;;;;4.70;4.23;;;16.80;99.90;;;;;;5051878;28;20202;-62
2023/07/05 02:22:14;;;;;;;6.67;4.57;;;16.80;99.90;;;;;;5051763;28;20194;-63
2023/07/05 02:24:40;;;;;;;8.40;4.60;;;16.80;99.90;;;;;;5050207;28;20668;-64
2023/07/05 02:27:05;;;;;;;19.63;6.03;;;16.80;99.90;;;;;;5049879;28;20204;-64
2023/07/05 02:29:31;;;;;;;9.57;4.13;;;16.80;99.90;;;;;;5050310;28;20978;-64
2023/07/05 02:32:00;;;;;;;10.87;4.37;;;16.80;99.90;;;;;;5053385;28;20225;-64
2023/07/05 02:34:27;;;;;;;5.57;4.00;;;16.60;99.90;;;;;;5055077;28;20267;-63
2023/07/05 02:36:52;;;;;;;8.93;4.30;;;16.70;99.90;;;;;;5060978;28;20218;-64
2023/07/05 02:39:18;;;;;;;8.57;4.27;;;16.70;99.90;;;;;;5058901;28;20244;-66
2023/07/05 02:41:43;;;;;;;5.90;3.90;;;16.80;99.90;;;;;;5061852;28;20211;-64
2023/07/05 02:44:09;;;;;;;7.50;4.43;;;16.70;99.90;;;;;;5059073;28;20191;-65
2023/07/05 02:46:36;;;;;;;4.83;4.23;;;16.70;99.90;;;;;;5058207;28;20925;-65
2023/07/05 02:49:02;;;;;;;6.63;3.97;;;16.70;99.90;;;;;;5051096;28;20194;-65
2023/07/05 02:51:28;;;;;;;4.67;4.27;;;16.60;99.90;;;;;;5059782;28;20202;-65
2023/07/05 02:53:53;;;;;;;4.40;4.00;;;16.70;99.90;;;;;;5060306;28;20224;-65
2023/07/05 02:56:19;;;;;;;10.53;4.00;;;16.70;99.90;;;;;;5060048;28;20213;-65
2023/07/05 02:58:45;;;;;;;4.57;3.87;;;16.70;99.90;;;;;;5058877;28;20215;-65
2023/07/05 03:01:10;;;;;;;7.30;4.03;;;16.60;99.90;;;;;;5057657;28;20194;-66
2023/07/05 03:03:36;;;;;;;6.77;4.43;;;16.70;99.90;;;;;;5061251;28;20202;-66
2023/07/05 03:06:01;;;;;;;7.03;4.33;;;16.60;99.90;;;;;;5056276;28;20198;-66
2023/07/05 03:08:28;;;;;;;5.43;4.27;;;16.70;99.90;;;;;;5056200;28;20214;-66
2023/07/05 03:10:58;;;;;;;4.90;3.70;;;16.70;99.90;;;;;;5060040;28;20226;-67
2023/07/05 03:13:27;;;;;;;5.63;4.53;;;16.70;99.90;;;;;;5058267;28;20206;-66
2023/07/05 03:15:53;;;;;;;5.83;3.97;;;16.70;99.90;;;;;;5059771;28;20201;-66
2023/07/05 03:18:18;;;;;;;7.77;4.17;;;16.60;99.90;;;;;;5058513;28;20603;-66
2023/07/05 03:20:47;;;;;;;7.30;4.17;;;16.50;99.90;;;;;;5059392;28;20211;-65
2023/07/05 03:23:14;;;;;;;5.93;3.87;;;16.50;99.90;;;;;;5059728;28;20260;-65
2023/07/05 03:25:40;;;;;;;7.23;4.30;;;16.60;99.90;;;;;;5059378;28;20208;-64
2023/07/05 03:28:06;;;;;;;6.93;4.30;;;16.60;99.90;;;;;;5059246;28;20234;-65
2023/07/05 03:30:33;;;;;;;6.73;4.37;;;16.60;99.90;;;;;;5059353;28;20267;-66
2023/07/05 03:32:59;;;;;;;5.97;4.63;;;16.60;99.90;;;;;;5059848;28;20651;-66
2023/07/05 03:35:24;;;;;;;6.93;5.07;;;16.60;99.90;;;;;;5056935;28;20222;-65
2023/07/05 03:37:50;;;;;;;8.33;4.43;;;16.60;99.90;;;;;;5049565;28;20890;-64
2023/07/05 03:40:15;;;;;;;7.10;4.57;;;16.60;99.90;;;;;;5058830;28;20784;-65
2023/07/05 03:42:41;;;;;;;7.60;4.53;;;16.60;99.90;;;;;;5059340;28;20202;-65
2023/07/05 03:45:07;;;;;;;5.50;4.27;;;16.60;99.90;;;;;;5058794;28;20599;-65
2023/07/05 03:47:32;;;;;;;7.73;4.77;;;16.60;99.90;;;;;;5058657;28;20255;-65
2023/07/05 03:49:58;;;;;;;7.30;4.80;;;16.60;99.90;;;;;;5057552;28;20212;-65
2023/07/05 03:52:24;;;;;;;7.87;4.10;;;16.70;99.90;;;;;;5062273;28;20221;-64
2023/07/05 03:54:49;;;;;;;8.27;4.47;;;16.70;99.90;;;;;;5055448;28;20205;-65
2023/07/05 03:57:15;;;;;;;5.70;4.67;;;16.80;99.90;;;;;;5060577;28;20411;-64
2023/07/05 03:59:40;;;;;;;6.50;3.97;;;16.80;99.90;;;;;;5056764;28;20248;-64
2023/07/05 04:02:06;;;;;;;6.87;4.80;;;16.80;99.90;;;;;;5058616;28;20199;-64
2023/07/05 04:04:32;;;;;;;11.23;4.87;;;16.80;99.90;;;;;;5056665;28;20729;-64
2023/07/05 04:06:59;;;;;;;8.70;4.53;;;16.70;99.90;;;;;;5058946;28;20208;-66
2023/07/05 04:09:25;;;;;;;6.13;4.20;;;16.70;99.90;;;;;;5059010;28;20213;-64
2023/07/05 04:11:51;;;;;;;6.47;4.57;;;16.80;99.90;;;;;;5058646;28;20272;-65
2023/07/05 04:14:16;;;;;;;7.03;4.37;;;16.80;99.90;;;;;;5062326;28;20211;-64
2023/07/05 04:16:42;;;;;;;7.07;4.63;;;16.90;99.90;;;;;;5052436;28;20213;-65
2023/07/05 04:19:08;;;;;;;6.10;3.93;;;16.90;99.90;;;;;;5061447;28;20625;-64
2023/07/05 04:21:34;;;;;;;5.50;4.70;;;16.80;99.90;;;;;;5054176;28;20630;-64
2023/07/05 04:24:00;;;;;;;7.83;4.53;;;16.80;99.90;;;;;;5058064;28;20617;-65
2023/07/05 04:26:27;;;;;;;6.03;3.93;;;16.90;99.90;;;;;;5058011;28;20199;-64
2023/07/05 04:28:53;;;;;;;6.93;4.40;;;16.90;99.90;;;;;;5055802;28;20191;-64
2023/07/05 04:31:28;;;;;;;4.77;3.93;;;17.00;99.90;;;;;;5057747;28;20202;-66
2023/07/05 04:33:54;;;;;;;6.43;4.87;;;17.00;99.90;;;;;;5058272;28;20270;-65
2023/07/05 04:36:20;;;;;;;4.23;3.43;;;17.10;99.90;;;;;;5056131;28;20449;-65
2023/07/05 04:38:45;;;;;;;4.07;3.67;;;17.10;99.90;;;;;;5058062;28;20194;-67
2023/07/05 04:41:11;;;;;;;4.63;3.57;;;17.20;99.90;;;;;;5057528;28;20261;-67
2023/07/05 04:43:36;;;;;;;6.37;4.03;;;17.10;99.90;;;;;;5058048;28;20373;-66
2023/07/05 04:46:02;;;;;;;5.80;3.87;;;17.20;99.90;;;;;;5057711;28;20202;-65
2023/07/05 04:48:29;;;;;;;7.00;4.30;;;17.30;99.90;;;;;;5054761;28;20719;-63
2023/07/05 04:50:57;;;;;;;5.73;4.53;;;17.30;99.90;;;;;;5057514;28;20688;-63
2023/07/05 04:53:24;;;;;;;6.63;4.03;;;17.30;99.90;;;;;;5057281;28;20206;-65
2023/07/05 04:55:53;;;;;;;8.20;4.17;;;17.30;99.90;;;;;;5056823;28;20229;-65
2023/07/05 04:58:20;;;;;;;7.73;4.57;;;17.50;99.90;;;;;;5054065;28;20229;-64
2023/07/05 05:00:49;;;;;;;5.80;4.07;;;17.50;99.90;;;;;;5056941;28;20198;-64
2023/07/05 05:03:24;;;;;;;11.10;4.03;;;17.50;99.90;;;;;;5057829;28;20649;-64
2023/07/05 05:05:54;;;;;;;7.63;4.23;;;17.50;99.90;;;;;;5056553;28;20193;-65
2023/07/05 05:08:20;;;;;;;7.13;4.17;;;17.50;99.90;;;;;;5057229;28;20242;-64
2023/07/05 05:10:50;;;;;;;7.67;4.77;;;17.60;99.90;;;;;;5057021;28;20201;-64
2023/07/05 05:13:16;;;;;;;6.60;4.37;;;17.60;99.90;;;;;;5055299;28;20202;-63
2023/07/05 05:15:41;;;;;;;8.73;4.37;;;17.60;99.90;;;;;;5057055;28;20250;-63
2023/07/05 05:18:08;;;;;;;10.07;4.23;;;17.60;99.90;;;;;;5060147;28;20702;-64
2023/07/05 05:20:34;;;;;;;4.43;3.43;;;17.60;99.90;;;;;;5051484;28;20540;-64
2023/07/05 05:23:00;;;;;;;6.80;4.33;;;17.70;99.90;;;;;;5054780;28;20191;-65
2023/07/05 05:25:27;;;;;;;8.93;4.77;;;17.70;99.90;;;;;;5056710;28;20604;-64
2023/07/05 05:27:52;;;;;;;12.30;5.53;;;17.80;99.90;;;;;;5055093;28;20626;-65
2023/07/05 05:30:19;;;;;;;6.83;3.70;;;17.90;99.90;;;;;;5055217;28;20731;-64
2023/07/05 05:32:47;;;;;;;4.40;4.00;;;18.10;99.90;;;;;;5055250;28;20238;-64
2023/07/05 05:35:14;;;;;;;6.50;4.57;;;18.20;99.90;;;;;;5058918;28;20216;-66
2023/07/05 05:37:40;;;;;;;7.53;4.47;;;18.20;99.90;;;;;;5052946;28;20271;-65
2023/07/05 05:40:07;;;;;;;6.80;4.13;;;18.30;99.90;;;;;;5054713;28;20218;-64
2023/07/05 05:42:32;;;;;;;6.20;4.60;;;18.30;99.90;;;;;;5056112;28;20286;-65
2023/07/05 05:44:58;;;;;;;6.97;4.90;;;18.40;99.90;;;;;;5056715;28;20666;-64
2023/07/05 05:47:23;;;;;;;9.97;4.30;;;18.40;99.90;;;;;;5056424;28;20203;-66
2023/07/05 05:49:49;;;;;;;9.23;5.03;;;18.50;99.90;;;;;;5057667;28;20234;-66
2023/07/05 05:52:14;;;;;;;7.77;4.93;;;18.50;99.90;;;;;;5054449;28;20655;-66
2023/07/05 05:54:40;;;;;;;11.17;5.07;;;18.40;99.90;;;;;;5054985;28;20213;-73
2023/07/05 05:57:05;;;;;;;7.37;4.73;;;18.50;99.90;;;;;;5066337;28;20206;-66
2023/07/05 05:59:31;;;;;;;5.27;4.30;;;18.50;99.90;;;;;;5067578;28;20250;-65
2023/07/05 06:01:56;;;;;;;7.30;4.93;;;18.50;99.90;;;;;;5057425;28;20200;-65
2023/07/05 06:04:22;;;;;;;12.87;6.33;;;18.60;99.90;;;;;;5059979;28;20226;-64
2023/07/05 06:06:47;;;;;;;9.40;4.83;;;18.70;99.90;;;;;;5050821;28;20212;-63
2023/07/05 06:09:14;;;;;;;7.80;5.43;;;18.70;99.90;;;;;;5056622;28;20202;-65
2023/07/05 06:11:40;;;;;;;7.63;4.80;;;18.70;99.90;;;;;;5056799;28;20246;-65
2023/07/05 06:14:06;;;;;;;8.73;6.13;;;18.70;99.90;;;;;;5058002;28;20261;-66
2023/07/05 06:16:31;;;;;;;8.87;4.97;;;18.80;99.90;;;;;;5056227;28;20206;-66
2023/07/05 06:18:57;;;;;;;5.80;4.53;;;18.90;99.80;;;;;;5055301;28;20201;-65
2023/07/05 06:21:23;;;;;;;7.20;4.87;;;19.00;99.90;;;;;;5057419;28;20671;-65
2023/07/05 06:23:49;;;;;;;8.07;4.63;;;19.00;99.70;;;;;;5055874;28;20401;-65
2023/07/05 06:26:15;;;;;;;6.70;5.13;;;19.00;99.90;;;;;;5056885;28;20234;-65
2023/07/05 06:28:40;;;;;;;8.80;4.70;;;19.10;99.80;;;;;;5057315;28;20713;-65
2023/07/05 06:31:12;;;;;;;6.87;4.60;;;19.00;99.90;;;;;;5056593;28;20203;-66
2023/07/05 06:33:39;;;;;;;7.93;5.27;;;19.10;99.90;;;;;;5059805;28;20682;-66
2023/07/05 06:36:06;;;;;;;6.70;5.40;;;19.20;99.90;;;;;;5056151;28;20614;-66
2023/07/05 06:38:32;;;;;;;7.23;5.77;;;19.20;99.90;;;;;;5055208;28;20248;-66
2023/07/05 06:40:58;;;;;;;8.47;5.80;;;19.40;99.70;;;;;;5057095;28;20334;-66
2023/07/05 06:43:24;;;;;;;10.03;6.00;;;19.40;99.50;;;;;;5055178;28;20287;-65
2023/07/05 06:45:52;;;;;;;8.77;6.27;;;19.20;99.80;;;;;;5060527;28;20254;-65
2023/07/05 06:48:17;;;;;;;7.47;6.13;;;19.30;99.60;;;;;;5059650;28;20200;-67
2023/07/05 06:50:43;;;;;;;9.80;7.20;;;19.40;99.50;;;;;;5062640;28;20709;-66
2023/07/05 06:53:10;;;;;;;9.07;6.50;;;19.50;99.60;;;;;;5066700;28;20202;-65
2023/07/05 06:55:40;;;;;;;9.33;6.67;;;19.60;99.50;;;;;;5066195;28;20208;-70
2023/07/05 06:58:05;;;;;;;8.67;5.20;;;19.70;99.10;;;;;;5069199;28;20531;-70
2023/07/05 07:00:31;;;;;;;7.30;5.57;;;19.80;99.80;;;;;;5050152;28;20639;-71
2023/07/05 07:02:57;;;;;;;12.00;7.10;;;19.90;99.20;;;;;;5049479;28;20556;-71
2023/07/05 07:05:22;;;;;;;8.03;6.87;;;20.10;98.90;;;;;;5051557;28;20200;-70
2023/07/05 07:07:50;;;;;;;13.13;6.67;;;20.20;97.90;;;;;;5048153;28;20345;-70
2023/07/05 07:10:15;;;;;;;8.67;5.93;;;20.20;98.50;;;;;;5058837;28;20225;-77
2023/07/05 07:12:41;;;;;;;10.90;7.93;;;20.30;98.50;;;;;;5062692;28;20203;-72
2023/07/05 07:15:07;;;;;;;9.30;7.23;;;20.40;98.10;;;;;;5058472;28;20232;-74
2023/07/05 07:17:32;;;;;;;8.77;7.73;;;20.40;98.40;;;;;;5050548;28;20209;-73
2023/07/05 07:19:58;;;;;;;12.10;8.10;;;20.50;97.60;;;;;;5062240;28;20699;-69
2023/07/05 07:22:24;;;;;;;11.17;8.20;;;20.60;97.40;;;;;;5056594;28;20284;-71
2023/07/05 07:24:51;;;;;;;12.50;7.70;;;20.80;97.00;;;;;;5063339;28;20565;-73
2023/07/05 07:27:17;;;;;;;8.30;7.43;;;20.80;97.20;;;;;;5061419;28;20759;-75
2023/07/05 07:29:42;;;;;;;13.17;8.93;;;20.90;97.30;;;;;;5056700;28;20200;-69
2023/07/05 07:32:09;;;;;;;8.90;7.87;;;21.00;97.20;;;;;;5061722;28;20216;-74
2023/07/05 07:34:34;;;;;;;10.30;8.57;;;21.00;97.50;;;;;;5065737;28;20950;-70
2023/07/05 07:37:00;;;;;;;9.27;8.17;;;21.10;97.00;;;;;;5054754;28;20349;-71
2023/07/05 07:39:26;;;;;;;12.47;8.30;;;21.20;96.50;;;;;;5049284;28;20942;-70
2023/07/05 07:41:51;;;;;;;14.30;8.40;;;21.20;96.80;;;;;;5049739;28;20226;-70
2023/07/05 07:44:19;;;;;;;12.50;8.77;;;21.30;96.40;;;;;;5062583;28;20262;-71
2023/07/05 07:46:45;;;;;;;11.90;9.23;;;21.30;96.80;;;;;;5050468;28;20616;-71
2023/07/05 07:49:11;;;;;;;10.27;8.93;;;21.40;96.80;;;;;;5049942;28;20232;-70
2023/07/05 07:51:39;;;;;;;14.93;10.00;;;21.50;96.40;;;;;;5050236;28;20206;-72
2023/07/05 07:54:08;;;;;;;13.63;8.90;;;21.60;96.00;;;;;;5058933;28;20217;-71
2023/07/05 07:56:34;;;;;;;10.17;8.63;;;21.60;96.60;;;;;;5050725;28;20197;-71
2023/07/05 07:59:00;;;;;;;12.40;9.63;;;21.60;96.00;;;;;;5061046;28;20251;-71
2023/07/05 08:01:29;;;;;;;17.60;9.33;;;21.70;95.50;;;;;;5058828;28;20556;-72
2023/07/05 08:03:56;;;;;;;13.57;10.30;;;21.80;96.30;;;;;;5047451;28;20248;-74
2023/07/05 08:06:40;;;;;;;12.53;9.73;;;21.90;95.50;;;;;;5050273;28;20714;-71
2023/07/05 08:09:07;;;;;;;16.70;11.13;;;22.10;94.90;;;;;;5047309;28;20212;-72
2023/07/05 08:11:33;;;;;;;15.50;9.67;;;22.00;95.20;;;;;;5051372;28;20225;-69
2023/07/05 08:13:59;;;;;;;13.97;11.53;;;22.20;94.90;;;;;;5064520;28;20760;-80
2023/07/05 08:16:25;;;;;;;14.00;11.30;;;22.20;95.20;;;;;;5063299;28;20217;-73
2023/07/05 08:18:51;;;;;;;13.33;10.20;;;22.30;94.60;;;;;;5063353;28;20218;-73
2023/07/05 08:21:17;;;;;;;13.73;11.13;;;22.20;96.00;;;;;;5062961;28;20331;-71
2023/07/05 08:23:43;;;;;;;15.30;11.03;;;22.10;95.30;;;;;;5059490;28;20202;-76
2023/07/05 08:26:09;;;;;;;12.73;10.57;;;22.10;95.40;;;;;;5063088;28;20702;-77
2023/07/05 08:28:35;;;;;;;19.37;12.20;;;22.00;95.40;;;;;;5064931;28;20198;-72
2023/07/05 08:31:03;;;;;;;12.57;9.37;;;22.00;95.40;;;;;;5061733;28;20249;-69
2023/07/05 08:33:31;;;;;;;16.30;10.80;;;22.00;96.10;;;;;;5063605;28;20206;-72
2023/07/05 08:36:10;;;;;;;15.13;11.50;;;22.00;95.60;;;;;;5063357;28;20212;-74
2023/07/05 08:38:42;;;;;;;12.40;11.07;;;22.00;95.30;;;;;;5050392;28;20960;-73
2023/07/05 08:41:16;;;;;;;15.30;10.43;;;22.00;95.30;;;;;;5046709;28;20218;-69
2023/07/05 08:43:52;;;;;;;15.27;12.40;;;22.00;95.90;;;;;;5046838;28;20367;-71
2023/07/05 08:46:20;;;;;;;14.73;11.60;;;22.10;95.60;;;;;;5042402;28;20213;-70
2023/07/05 08:48:48;;;;;;;27.03;11.93;;;22.10;95.70;;;;;;5045699;28;20223;-72
2023/07/05 08:51:17;;;;;;;17.03;11.40;;;22.20;95.70;;;;;;5053058;28;20297;-70
2023/07/05 08:53:56;;;;;;;15.70;13.00;;;22.20;95.70;;;;;;5057870;28;20263;-71
2023/07/05 08:56:28;;;;;;;12.80;10.77;;;22.30;95.50;;;;;;5052881;28;20201;-71
2023/07/05 08:59:06;;;;;;;10.70;9.50;;;22.40;95.50;;;;;;5045874;28;20254;-70
2023/07/05 09:01:39;;;;;;;14.03;10.97;;;22.50;95.20;;;;;;5054333;28;20242;-73
2023/07/05 09:04:17;;;;;;;14.57;10.10;;;22.50;94.90;;;;;;5061416;28;20634;-73
2023/07/05 09:07:12;;;;;;;13.97;10.70;;;22.50;94.90;;;;;;5064538;28;20234;-71
2023/07/05 09:10:07;;;;;;;14.07;10.40;;;22.60;95.10;;;;;;5060975;28;20197;-72
2023/07/05 09:13:11;;;;;;;14.67;9.90;;;22.50;96.20;;;;;;5064463;28;20201;-72
2023/07/05 09:15:47;;;;;;;10.70;9.60;;;22.50;95.60;;;;;;5065688;28;20209;-71
2023/07/05 09:18:28;;;;;;;10.70;9.40;;;22.50;95.00;;;;;;5060186;28;20555;-73
2023/07/05 09:21:22;;;;;;;8.13;7.30;;;22.50;95.10;;;;;;5055124;28;20197;-72
2023/07/05 09:23:53;;;;;;;11.33;8.87;;;22.50;95.10;;;;;;5057020;28;20202;-68
2023/07/05 09:26:36;;;;;;;11.23;9.83;;;22.50;94.70;;;;;;5060358;28;20233;-76
2023/07/05 09:29:13;;;;;;;10.23;8.43;;;22.40;94.30;;;;;;5065163;28;20221;-72
2023/07/05 09:31:41;;;;;;;8.83;7.70;;;22.40;94.30;;;;;;5060213;28;20251;-72
2023/07/05 09:34:27;;;;;;;9.93;7.73;;;22.40;94.80;;;;;;5054748;28;20234;-70
2023/07/05 09:36:53;;;;;;;10.93;8.37;;;22.40;94.90;;;;;;5045924;28;20578;-70
2023/07/05 09:39:32;;;;;;;9.93;7.83;;;22.40;95.00;;;;;;5051611;28;20241;-70
2023/07/05 09:42:02;;;;;;;11.30;8.70;;;22.60;94.80;;;;;;5042729;28;20198;-70
2023/07/05 09:44:29;;;;;;;9.77;8.53;;;22.60;94.60;;;;;;5047983;28;20198;-70
2023/07/05 09:46:54;;;;;;;14.03;8.33;;;22.60;94.80;;;;;;5048334;28;20508;-71
2023/07/05 09:49:20;;;;;;;11.80;8.50;;;22.50;95.00;;;;;;5054218;28;20202;-70
2023/07/05 09:51:46;;;;;;;9.17;7.20;;;22.50;95.40;;;;;;5046988;28;20198;-67
2023/07/05 09:54:29;;;;;;;10.37;7.53;;;22.60;95.00;;;;;;5046708;28;20209;-71
2023/07/05 09:57:06;;;;;;;10.30;7.70;;;22.70;94.90;;;;;;5057533;28;20567;-69
2023/07/05 09:59:36;;;;;;;12.43;7.53;;;22.70;95.50;;;;;;5044875;28;20285;-72
2023/07/05 10:02:25;;;;;;;11.10;7.77;;;22.90;95.20;;;;;;5047740;28;20198;-71
2023/07/05 10:04:53;;;;;;;8.17;6.90;;;22.80;95.20;;;;;;5047257;28;20230;-72
2023/07/05 10:07:21;;;;;;;10.83;7.73;;;22.70;95.60;;;;;;5042854;28;20210;-73
2023/07/05 10:10:14;;;;;;;11.13;7.13;;;22.80;95.40;;;;;;5047713;28;20544;-74
2023/07/05 10:12:43;;;;;;;7.27;6.53;;;22.80;96.60;;;;;;5048618;28;20297;-70
2023/07/05 10:15:21;;;;;;;9.73;7.37;;;22.80;96.10;;;;;;5047189;28;20237;-71
2023/07/05 10:17:48;;;;;;;9.57;7.10;;;22.80;96.60;;;;;;5048203;28;20723;-70
2023/07/05 10:20:19;;;;;;;10.27;7.60;;;22.90;96.10;;;;;;5046404;28;20190;-71
2023/07/05 10:22:45;;;;;;;7.80;7.03;;;23.00;96.20;;;;;;5045210;28;20687;-70
2023/07/05 10:25:20;;;;;;;8.97;6.83;;;23.00;96.00;;;;;;5046630;28;20195;-70
2023/07/05 10:27:50;;;;;;;9.73;6.63;;;23.10;96.00;;;;;;5047814;28;20830;-70
2023/07/05 10:30:19;;;;;;;8.67;6.50;;;23.20;96.50;;;;;;5051443;28;20236;-71
2023/07/05 10:33:20;;;;;;;12.40;7.53;;;23.30;96.10;;;;;;5050825;28;20207;-71
2023/07/05 10:36:09;;;;;;;8.03;7.27;;;23.40;96.60;;;;;;5053429;28;20700;-73
2023/07/05 10:38:50;;;;;;;11.07;6.93;;;23.50;96.40;;;;;;5049730;28;20579;-69
2023/07/05 10:41:25;;;;;;;11.40;7.07;;;23.60;96.10;;;;;;5050115;28;20315;-76
2023/07/05 10:44:35;;;;;;;8.30;6.03;;;23.60;96.30;;;;;;5050314;28;20211;-71
2023/07/05 10:47:02;;;;;;;10.07;6.33;;;23.70;96.30;;;;;;5038172;28;20217;-74
2023/07/05 10:49:30;;;;;;;6.97;6.10;;;23.60;96.70;;;;;;5066868;28;20189;-72
2023/07/05 10:52:03;;;;;;;9.13;6.73;;;23.50;96.90;;;;;;5061335;28;20876;-72
2023/07/05 10:54:40;;;;;;;10.45;6.55;;;23.60;96.80;;;;;;5062707;28;20655;-73
2023/07/05 10:57:41;;;;;;;6.57;5.43;;;23.70;97.10;;;;;;5065027;28;20224;-73
2023/07/05 11:00:37;;;;;;;7.80;5.47;;;23.60;96.90;;;;;;5064624;28;20768;-72
2023/07/05 11:03:18;;;;;;;7.23;5.30;;;23.50;97.30;;;;;;5065246;28;20676;-73
2023/07/05 11:05:47;;;;;;;6.13;5.00;;;23.50;97.50;;;;;;5066068;28;20277;-73
2023/07/05 11:08:26;;;;;;;6.53;5.00;;;23.40;97.80;;;;;;5061340;28;20202;-74
2023/07/05 11:10:55;;;;;;;5.13;4.63;;;23.40;97.80;;;;;;5065638;28;20201;-70
2023/07/05 11:13:20;;;;;;;5.70;5.20;;;23.40;98.60;;;;;;5057474;28;20688;-72
2023/07/05 11:15:46;;;;;;;7.00;6.10;;;23.40;99.00;;;;;;5062235;28;20203;-71
2023/07/05 11:18:25;;;;;;;10.47;4.97;;;23.50;99.00;;;;;;5068680;28;20213;-71
2023/07/05 11:20:56;;;;;;;12.73;4.87;;;23.50;98.70;;;;;;5056152;28;20212;-72
2023/07/05 11:23:43;;;;;;;5.50;4.55;;;23.60;99.20;;;;;;5047196;28;20198;-72
2023/07/05 11:26:29;;;;;;;4.97;4.15;;;23.70;99.10;;;;;;5045296;28;20678;-71
2023/07/05 11:28:54;;;;;;;4.63;4.23;;;23.90;99.20;;;;;;5049473;28;20203;-71
2023/07/05 11:31:29;;;;;;;5.72;4.63;;;23.90;98.60;;;;;;5060389;28;20216;-71
2023/07/05 11:34:20;;;;;;;4.75;3.78;;;23.80;98.50;;;;;;5058677;28;20669;-75
2023/07/05 11:36:47;;;;;;;3.47;3.10;;;24.00;99.00;;;;;;5060493;28;20201;-72
2023/07/05 11:39:32;;;;;;;6.00;3.50;;;24.00;98.80;;;;;;5055722;28;20218;-73
2023/07/05 11:42:12;;;;;;;6.53;3.30;;;23.90;99.20;;;;;;5054162;28;20210;-73
2023/07/05 11:44:39;;;;;;;3.88;3.47;;;23.90;99.60;;;;;;5046049;28;20198;-73
2023/07/05 11:47:07;;;;;;;4.82;3.80;;;24.00;99.40;;;;;;5054710;28;20220;-71
2023/07/05 11:49:36;;;;;;;3.00;2.70;;;24.10;99.20;;;;;;5061058;28;20198;-72
2023/07/05 11:52:12;;;;;;;4.43;2.88;;;24.00;99.10;;;;;;5059020;28;20603;-72
2023/07/05 11:54:56;;;;;;;5.20;3.43;;;23.90;98.90;;;;;;5059330;28;20211;-72
2023/07/05 11:57:22;;;;;;;4.10;3.15;;;23.80;99.70;;;;;;5058842;28;20475;-72
2023/07/05 12:00:14;;;;;;;3.90;3.10;;;23.80;99.50;;;;;;5051066;28;20202;-71
2023/07/05 12:03:11;;;;;;;3.23;2.87;;;23.70;98.80;;;;;;5052980;28;20202;-71
2023/07/05 12:05:38;;;;;;;2.97;2.58;;;23.70;99.90;;;;;;5049186;28;20198;-71
2023/07/05 12:08:24;;;;;;;3.33;3.03;;;23.80;99.70;;;;;;5053213;28;20502;-72
2023/07/05 12:11:00;;;;;;;3.57;2.80;;;23.90;99.50;;;;;;5047522;28;20202;-75
2023/07/05 12:13:35;;;;;;;2.63;2.20;;;24.00;99.70;;;;;;5045698;28;20209;-75
2023/07/05 12:16:06;;;;;;;2.60;2.20;;;24.20;99.40;;;;;;5043615;28;20277;-74
2023/07/05 12:18:32;;;;;;;4.22;2.60;;;24.60;98.80;;;;;;5049217;28;20210;-76
2023/07/05 12:20:58;;;;;;;2.58;2.35;;;24.70;98.50;;;;;;5054939;28;20195;-78
2023/07/05 12:23:29;;;;;;;2.55;2.35;;;24.60;98.40;;;;;;5046600;28;20350;-76
2023/07/05 12:25:57;;;;;;;2.75;2.55;;;24.70;98.20;;;;;;5051403;28;20343;-70
2023/07/05 12:28:28;;;;;;;3.17;2.58;;;24.40;98.90;;;;;;5045199;28;20219;-70
2023/07/05 12:30:58;;;;;;;2.88;2.53;;;24.50;98.20;;;;;;5050286;28;20491;-70
2023/07/05 12:33:27;;;;;;;4.18;2.67;;;24.40;98.60;;;;;;5045066;28;20206;-71
2023/07/05 12:36:12;;;;;;;2.95;2.33;;;24.40;98.00;;;;;;5048480;28;20281;-71
2023/07/05 12:38:40;;;;;;;5.25;2.80;;;24.50;98.30;;;;;;5046484;28;20227;-69
2023/07/05 12:41:22;;;;;;;2.78;2.58;;;24.50;98.50;;;;;;5052969;28;20228;-71
2023/07/05 12:43:56;;;;;;;4.25;2.60;;;24.50;98.10;;;;;;5055062;28;20346;-72
2023/07/05 12:46:23;;;;;;;4.80;2.40;;;24.40;98.40;;;;;;5048539;28;20202;-69
2023/07/05 12:48:49;;;;;;;4.97;2.33;;;24.40;98.30;;;;;;5047407;28;20727;-70
2023/07/05 12:51:19;;;;;;;2.92;2.28;;;24.50;98.00;;;;;;5046374;28;20227;-75
2023/07/05 12:53:51;;;;;;;4.22;2.65;;;24.60;98.60;;;;;;5052802;28;20244;-80
2023/07/05 12:56:35;;;;;;;2.50;2.25;;;24.70;97.30;;;;;;5054375;28;20202;-75
2023/07/05 12:59:06;;;;;;;1.98;1.67;;;24.80;97.50;;;;;;5048217;28;20219;-75